sensor_id;sensor_type;location;lat;lon;timestamp;temperature;humidity
54516;DHT22;40422;45.892;4.738;2023-05-01T03:00:30;13.60;99.90
54516;DHT22;40422;45.892;4.738;2023-05-01T03:02:56;13.50;99.90
54516;DHT22;40422;45.892;4.738;2023-05-01T03:05:22;13.50;99.90
54516;DHT22;40422;45.892;4.738;2023-05-01T03:07:48;13.40;99.90
54516;DHT22;40422;45.892;4.738;2023-05-01T03:10:15;13.40;99.90
54516;DHT22;40422;45.892;4.738;2023-05-01T03:12:41;13.40;99.90
54516;DHT22;40422;45.892;4.738;2023-05-01T03:15:07;13.40;99.90
54516;DHT22;40422;45.892;4.738;2023-05-01T03:17:33;13.30;99.90
54516;DHT22;40422;45.892;4.738;2023-05-01T03:19:59;13.20;99.90
54516;DHT22;40422;45.892;4.738;2023-05-01T03:22:28;13.20;99.90
54516;DHT22;40422;45.892;4.738;2023-05-01T03:24:54;13.20;99.90
54516;DHT22;40422;45.892;4.738;2023-05-01T03:27:20;13.30;99.90
54516;DHT22;40422;45.892;4.738;2023-05-01T03:29:45;13.20;99.90
54516;DHT22;40422;45.892;4.738;2023-05-01T03:32:11;13.20;99.90
54516;DHT22;40422;45.892;4.738;2023-05-01T03:34:37;13.20;99.90
54516;DHT22;40422;45.892;4.738;2023-05-01T03:37:03;13.30;99.90
54516;DHT22;40422;45.892;4.738;2023-05-01T03:39:29;13.30;99.90
54516;DHT22;40422;45.892;4.738;2023-05-01T03:41:55;13.30;99.90
54516;DHT22;40422;45.892;4.738;2023-05-01T03:44:21;13.30;99.90
54516;DHT22;40422;45.892;4.738;2023-05-01T03:46:47;13.30;99.90
54516;DHT22;40422;45.892;4.738;2023-05-01T03:49:13;13.30;99.90
54516;DHT22;40422;45.892;4.738;2023-05-01T03:51:39;13.30;99.90
54516;DHT22;40422;45.892;4.738;2023-05-01T03:54:04;13.20;99.90
54516;DHT22;40422;45.892;4.738;2023-05-01T03:56:30;13.20;99.90
54516;DHT22;40422;45.892;4.738;2023-05-01T03:59:00;13.20;99.90
54516;DHT22;40422;45.892;4.738;2023-05-01T04:01:26;13.20;99.90
54516;DHT22;40422;45.892;4.738;2023-05-01T04:03:51;13.20;99.90
54516;DHT22;40422;45.892;4.738;2023-05-01T04:06:18;13.20;99.90
54516;DHT22;40422;45.892;4.738;2023-05-01T04:08:43;13.30;99.90
54516;DHT22;40422;45.892;4.738;2023-05-01T04:11:09;13.30;99.90
54516;DHT22;40422;45.892;4.738;2023-05-01T04:13:35;13.30;99.90
54516;DHT22;40422;45.892;4.738;2023-05-01T04:16:01;13.30;99.90
54516;DHT22;40422;45.892;4.738;2023-05-01T04:18:27;13.30;99.90
54516;DHT22;40422;45.892;4.738;2023-05-01T04:20:53;13.30;99.90
54516;DHT22;40422;45.892;4.738;2023-05-01T04:23:19;13.30;99.90
54516;DHT22;40422;45.892;4.738;2023-05-01T04:25:45;13.30;99.90
54516;DHT22;40422;45.892;4.738;2023-05-01T04:28:12;13.30;99.90
54516;DHT22;40422;45.892;4.738;2023-05-01T04:30:38;13.30;99.90
54516;DHT22;40422;45.892;4.738;2023-05-01T04:33:03;13.30;99.90
54516;DHT22;40422;45.892;4.738;2023-05-01T04:35:40;13.30;99.90
54516;DHT22;40422;45.892;4.738;2023-05-01T04:38:06;13.30;99.90
54516;DHT22;40422;45.892;4.738;2023-05-01T04:40:32;13.30;99.90
54516;DHT22;40422;45.892;4.738;2023-05-01T04:42:58;13.30;99.90
54516;DHT22;40422;45.892;4.738;2023-05-01T04:45:25;13.30;99.90
54516;DHT22;40422;45.892;4.738;2023-05-01T04:47:51;13.30;99.90
54516;DHT22;40422;45.892;4.738;2023-05-01T04:50:17;13.30;99.90
54516;DHT22;40422;45.892;4.738;2023-05-01T04:52:42;13.30;99.90
54516;DHT22;40422;45.892;4.738;2023-05-01T04:55:08;13.30;99.90
54516;DHT22;40422;45.892;4.738;2023-05-01T04:57:34;13.30;99.90
54516;DHT22;40422;45.892;4.738;2023-05-01T05:00:00;13.40;99.90
54516;DHT22;40422;45.892;4.738;2023-05-01T05:02:26;13.40;99.90
54516;DHT22;40422;45.892;4.738;2023-05-01T05:04:52;13.40;99.90
54516;DHT22;40422;45.892;4.738;2023-05-01T05:07:21;13.30;99.90
54516;DHT22;40422;45.892;4.738;2023-05-01T05:09:47;13.20;99.90
54516;DHT22;40422;45.892;4.738;2023-05-01T05:12:13;13.20;99.90
54516;DHT22;40422;45.892;4.738;2023-05-01T05:14:40;13.20;99.90
54516;DHT22;40422;45.892;4.738;2023-05-01T05:17:06;13.30;99.90
54516;DHT22;40422;45.892;4.738;2023-05-01T05:19:31;13.30;99.90
54516;DHT22;40422;45.892;4.738;2023-05-01T05:21:57;13.30;99.90
54516;DHT22;40422;45.892;4.738;2023-05-01T05:24:23;13.30;99.90
54516;DHT22;40422;45.892;4.738;2023-05-01T05:26:50;13.40;99.90
54516;DHT22;40422;45.892;4.738;2023-05-01T05:29:16;13.40;99.90
54516;DHT22;40422;45.892;4.738;2023-05-01T05:31:41;13.40;99.90
54516;DHT22;40422;45.892;4.738;2023-05-01T05:34:07;13.40;99.90
54516;DHT22;40422;45.892;4.738;2023-05-01T05:36:33;13.40;99.90
54516;DHT22;40422;45.892;4.738;2023-05-01T05:39:00;13.40;99.90
54516;DHT22;40422;45.892;4.738;2023-05-01T05:41:25;13.50;99.90
54516;DHT22;40422;45.892;4.738;2023-05-01T05:43:51;13.50;99.90
54516;DHT22;40422;45.892;4.738;2023-05-01T05:46:18;13.40;99.90
54516;DHT22;40422;45.892;4.738;2023-05-01T05:48:44;13.40;99.90
54516;DHT22;40422;45.892;4.738;2023-05-01T05:51:11;13.40;99.90
54516;DHT22;40422;45.892;4.738;2023-05-01T05:53:37;13.40;99.90
54516;DHT22;40422;45.892;4.738;2023-05-01T05:56:03;13.40;99.90
54516;DHT22;40422;45.892;4.738;2023-05-01T05:58:29;13.40;99.90
54516;DHT22;40422;45.892;4.738;2023-05-01T06:00:55;13.50;99.90
54516;DHT22;40422;45.892;4.738;2023-05-01T06:03:21;13.50;99.90
54516;DHT22;40422;45.892;4.738;2023-05-01T06:05:47;13.60;99.90
54516;DHT22;40422;45.892;4.738;2023-05-01T06:08:14;13.60;99.90
54516;DHT22;40422;45.892;4.738;2023-05-01T06:10:43;13.70;99.90
54516;DHT22;40422;45.892;4.738;2023-05-01T06:13:09;13.70;99.90
54516;DHT22;40422;45.892;4.738;2023-05-01T06:15:36;13.80;99.90
54516;DHT22;40422;45.892;4.738;2023-05-01T06:18:02;13.80;99.90
54516;DHT22;40422;45.892;4.738;2023-05-01T06:20:29;13.80;99.90
54516;DHT22;40422;45.892;4.738;2023-05-01T06:22:55;13.90;99.90
54516;DHT22;40422;45.892;4.738;2023-05-01T06:25:22;13.90;99.90
54516;DHT22;40422;45.892;4.738;2023-05-01T06:27:50;14.00;99.90
54516;DHT22;40422;45.892;4.738;2023-05-01T06:30:17;14.10;99.90
54516;DHT22;40422;45.892;4.738;2023-05-01T06:32:44;14.20;99.90
54516;DHT22;40422;45.892;4.738;2023-05-01T06:35:11;14.30;99.90
54516;DHT22;40422;45.892;4.738;2023-05-01T06:37:37;14.30;99.90
54516;DHT22;40422;45.892;4.738;2023-05-01T06:40:07;14.30;99.90
54516;DHT22;40422;45.892;4.738;2023-05-01T06:42:35;14.40;99.90
54516;DHT22;40422;45.892;4.738;2023-05-01T06:45:01;14.40;99.90
54516;DHT22;40422;45.892;4.738;2023-05-01T06:47:28;14.60;99.90
54516;DHT22;40422;45.892;4.738;2023-05-01T06:49:54;14.80;99.90
54516;DHT22;40422;45.892;4.738;2023-05-01T06:52:20;14.90;99.90
54516;DHT22;40422;45.892;4.738;2023-05-01T06:54:46;15.10;99.90
54516;DHT22;40422;45.892;4.738;2023-05-01T06:57:12;15.30;99.90
54516;DHT22;40422;45.892;4.738;2023-05-01T06:59:38;15.40;99.90
54516;DHT22;40422;45.892;4.738;2023-05-01T07:02:04;15.50;99.90
54516;DHT22;40422;45.892;4.738;2023-05-01T07:04:31;15.60;99.90
54516;DHT22;40422;45.892;4.738;2023-05-01T07:06:56;15.70;99.90
54516;DHT22;40422;45.892;4.738;2023-05-01T07:09:22;15.80;99.90
54516;DHT22;40422;45.892;4.738;2023-05-01T07:11:48;16.00;99.90
54516;DHT22;40422;45.892;4.738;2023-05-01T07:14:14;16.10;99.90
54516;DHT22;40422;45.892;4.738;2023-05-01T07:16:40;16.20;99.90
54516;DHT22;40422;45.892;4.738;2023-05-01T07:19:06;16.40;99.90
54516;DHT22;40422;45.892;4.738;2023-05-01T07:21:32;16.50;99.90
54516;DHT22;40422;45.892;4.738;2023-05-01T07:23:58;16.70;99.90
54516;DHT22;40422;45.892;4.738;2023-05-01T07:26:25;16.90;99.90
54516;DHT22;40422;45.892;4.738;2023-05-01T07:28:51;17.00;99.90
54516;DHT22;40422;45.892;4.738;2023-05-01T07:31:17;17.00;99.90
54516;DHT22;40422;45.892;4.738;2023-05-01T07:33:43;17.10;99.90
54516;DHT22;40422;45.892;4.738;2023-05-01T07:36:09;17.10;99.90
54516;DHT22;40422;45.892;4.738;2023-05-01T07:38:35;17.00;99.90
54516;DHT22;40422;45.892;4.738;2023-05-01T07:41:01;16.90;99.90
54516;DHT22;40422;45.892;4.738;2023-05-01T07:43:27;16.90;99.90
54516;DHT22;40422;45.892;4.738;2023-05-01T07:45:58;16.90;99.90
54516;DHT22;40422;45.892;4.738;2023-05-01T07:48:27;16.90;99.90
54516;DHT22;40422;45.892;4.738;2023-05-01T07:50:54;16.80;99.90
54516;DHT22;40422;45.892;4.738;2023-05-01T07:53:21;16.70;99.90
54516;DHT22;40422;45.892;4.738;2023-05-01T07:55:47;16.70;99.90
54516;DHT22;40422;45.892;4.738;2023-05-01T07:58:14;16.70;99.90
54516;DHT22;40422;45.892;4.738;2023-05-01T08:00:40;16.70;99.90
54516;DHT22;40422;45.892;4.738;2023-05-01T08:03:06;16.80;99.90
54516;DHT22;40422;45.892;4.738;2023-05-01T08:05:32;16.90;99.90
54516;DHT22;40422;45.892;4.738;2023-05-01T08:07:58;17.00;99.90
54516;DHT22;40422;45.892;4.738;2023-05-01T08:10:24;17.00;99.90
54516;DHT22;40422;45.892;4.738;2023-05-01T08:12:50;16.90;99.90
54516;DHT22;40422;45.892;4.738;2023-05-01T08:15:16;16.90;99.90
54516;DHT22;40422;45.892;4.738;2023-05-01T08:17:42;16.80;99.90
54516;DHT22;40422;45.892;4.738;2023-05-01T08:20:08;16.70;99.90
54516;DHT22;40422;45.892;4.738;2023-05-01T08:22:34;16.60;99.90
54516;DHT22;40422;45.892;4.738;2023-05-01T08:25:00;16.50;99.90
54516;DHT22;40422;45.892;4.738;2023-05-01T08:27:26;16.50;99.90
54516;DHT22;40422;45.892;4.738;2023-05-01T08:29:52;16.60;99.90
54516;DHT22;40422;45.892;4.738;2023-05-01T08:32:17;16.50;99.90
54516;DHT22;40422;45.892;4.738;2023-05-01T08:34:43;16.50;99.90
54516;DHT22;40422;45.892;4.738;2023-05-01T08:37:10;16.60;99.90
54516;DHT22;40422;45.892;4.738;2023-05-01T08:39:35;16.60;99.90
54516;DHT22;40422;45.892;4.738;2023-05-01T08:42:02;16.70;99.90
54516;DHT22;40422;45.892;4.738;2023-05-01T08:44:30;16.80;99.90
54516;DHT22;40422;45.892;4.738;2023-05-01T08:47:09;16.70;99.90
54516;DHT22;40422;45.892;4.738;2023-05-01T08:49:36;16.80;99.90
54516;DHT22;40422;45.892;4.738;2023-05-01T08:52:05;16.80;99.90
54516;DHT22;40422;45.892;4.738;2023-05-01T08:54:32;16.80;99.90
54516;DHT22;40422;45.892;4.738;2023-05-01T08:57:02;16.80;99.90
54516;DHT22;40422;45.892;4.738;2023-05-01T08:59:34;16.80;99.90
54516;DHT22;40422;45.892;4.738;2023-05-01T09:02:01;16.80;99.90
54516;DHT22;40422;45.892;4.738;2023-05-01T09:04:38;16.90;99.90
54516;DHT22;40422;45.892;4.738;2023-05-01T09:07:04;16.90;99.90
54516;DHT22;40422;45.892;4.738;2023-05-01T09:09:31;16.90;99.90
54516;DHT22;40422;45.892;4.738;2023-05-01T09:12:23;17.00;99.90
54516;DHT22;40422;45.892;4.738;2023-05-01T09:14:51;17.10;99.90
54516;DHT22;40422;45.892;4.738;2023-05-01T09:17:17;17.30;99.90
54516;DHT22;40422;45.892;4.738;2023-05-01T09:19:44;17.40;99.90
54516;DHT22;40422;45.892;4.738;2023-05-01T09:22:11;17.50;99.90
54516;DHT22;40422;45.892;4.738;2023-05-01T09:24:37;17.50;99.90
54516;DHT22;40422;45.892;4.738;2023-05-01T09:27:03;17.60;99.90
54516;DHT22;40422;45.892;4.738;2023-05-01T09:29:40;17.70;99.90
54516;DHT22;40422;45.892;4.738;2023-05-01T09:34:48;17.80;99.90
54516;DHT22;40422;45.892;4.738;2023-05-01T09:37:28;17.90;99.90
54516;DHT22;40422;45.892;4.738;2023-05-01T09:40:08;18.00;99.90
54516;DHT22;40422;45.892;4.738;2023-05-01T09:45:04;18.20;99.90
54516;DHT22;40422;45.892;4.738;2023-05-01T09:47:30;18.30;99.90
54516;DHT22;40422;45.892;4.738;2023-05-01T09:49:58;18.60;99.90
54516;DHT22;40422;45.892;4.738;2023-05-01T09:52:26;18.90;99.90
54516;DHT22;40422;45.892;4.738;2023-05-01T09:55:15;19.30;99.60
54516;DHT22;40422;45.892;4.738;2023-05-01T09:57:42;19.70;97.40
54516;DHT22;40422;45.892;4.738;2023-05-01T10:00:10;19.60;97.00
54516;DHT22;40422;45.892;4.738;2023-05-01T10:02:37;19.50;96.90
54516;DHT22;40422;45.892;4.738;2023-05-01T10:05:05;19.40;96.40
54516;DHT22;40422;45.892;4.738;2023-05-01T10:07:32;19.20;96.30
54516;DHT22;40422;45.892;4.738;2023-05-01T10:10:14;19.00;96.30
54516;DHT22;40422;45.892;4.738;2023-05-01T10:12:40;19.00;95.90
54516;DHT22;40422;45.892;4.738;2023-05-01T10:15:06;18.90;95.90
54516;DHT22;40422;45.892;4.738;2023-05-01T10:17:33;18.90;97.20
54516;DHT22;40422;45.892;4.738;2023-05-01T10:19:59;19.00;96.70
54516;DHT22;40422;45.892;4.738;2023-05-01T10:22:25;18.90;96.00
54516;DHT22;40422;45.892;4.738;2023-05-01T10:24:51;18.70;96.40
54516;DHT22;40422;45.892;4.738;2023-05-01T10:27:18;18.80;96.50
54516;DHT22;40422;45.892;4.738;2023-05-01T10:29:47;19.20;96.90
54516;DHT22;40422;45.892;4.738;2023-05-01T10:32:17;19.70;94.70
54516;DHT22;40422;45.892;4.738;2023-05-01T10:34:47;19.90;95.30
54516;DHT22;40422;45.892;4.738;2023-05-01T10:37:21;20.00;94.50
54516;DHT22;40422;45.892;4.738;2023-05-01T10:39:49;20.20;93.10
54516;DHT22;40422;45.892;4.738;2023-05-01T10:42:15;20.20;92.80
54516;DHT22;40422;45.892;4.738;2023-05-01T10:44:41;20.00;93.00
54516;DHT22;40422;45.892;4.738;2023-05-01T10:50:05;19.30;92.30
54516;DHT22;40422;45.892;4.738;2023-05-01T10:55:47;19.50;93.80
54516;DHT22;40422;45.892;4.738;2023-05-01T11:01:30;19.10;93.30
54516;DHT22;40422;45.892;4.738;2023-05-01T11:04:00;19.10;95.00
54516;DHT22;40422;45.892;4.738;2023-05-01T11:06:28;19.00;94.10
54516;DHT22;40422;45.892;4.738;2023-05-01T11:08:54;18.90;94.40
54516;DHT22;40422;45.892;4.738;2023-05-01T11:14:06;18.60;95.10
54516;DHT22;40422;45.892;4.738;2023-05-01T11:16:39;18.40;96.10
54516;DHT22;40422;45.892;4.738;2023-05-01T11:21:48;17.70;96.10
54516;DHT22;40422;45.892;4.738;2023-05-01T11:24:15;17.70;97.90
54516;DHT22;40422;45.892;4.738;2023-05-01T11:26:43;17.70;98.00
54516;DHT22;40422;45.892;4.738;2023-05-01T11:29:10;17.70;98.60
54516;DHT22;40422;45.892;4.738;2023-05-01T11:31:37;17.70;98.90
54516;DHT22;40422;45.892;4.738;2023-05-01T11:34:03;17.60;98.60
54516;DHT22;40422;45.892;4.738;2023-05-01T11:36:50;17.60;98.70
54516;DHT22;40422;45.892;4.738;2023-05-01T11:39:16;17.60;98.80
54516;DHT22;40422;45.892;4.738;2023-05-01T11:41:43;17.60;98.00
54516;DHT22;40422;45.892;4.738;2023-05-01T11:44:11;17.50;98.40
54516;DHT22;40422;45.892;4.738;2023-05-01T11:46:37;17.60;98.60
54516;DHT22;40422;45.892;4.738;2023-05-01T11:49:04;17.60;98.80
54516;DHT22;40422;45.892;4.738;2023-05-01T11:51:30;17.80;98.60
54516;DHT22;40422;45.892;4.738;2023-05-01T11:54:04;17.90;99.50
54516;DHT22;40422;45.892;4.738;2023-05-01T11:56:30;18.00;98.10
54516;DHT22;40422;45.892;4.738;2023-05-01T11:58:59;18.00;97.10
54516;DHT22;40422;45.892;4.738;2023-05-01T12:01:34;18.20;97.60
54516;DHT22;40422;45.892;4.738;2023-05-01T12:04:01;18.20;97.40
54516;DHT22;40422;45.892;4.738;2023-05-01T12:06:39;18.10;97.50
54516;DHT22;40422;45.892;4.738;2023-05-01T12:09:16;18.00;97.30
54516;DHT22;40422;45.892;4.738;2023-05-01T12:11:43;18.00;97.10
54516;DHT22;40422;45.892;4.738;2023-05-01T12:14:10;18.10;98.10
54516;DHT22;40422;45.892;4.738;2023-05-01T12:16:36;18.00;97.30
54516;DHT22;40422;45.892;4.738;2023-05-01T12:19:05;18.00;98.40
54516;DHT22;40422;45.892;4.738;2023-05-01T12:21:32;18.10;98.10
54516;DHT22;40422;45.892;4.738;2023-05-01T12:24:11;18.10;98.50
54516;DHT22;40422;45.892;4.738;2023-05-01T12:26:39;17.90;98.40
54516;DHT22;40422;45.892;4.738;2023-05-01T12:29:06;17.90;98.80
54516;DHT22;40422;45.892;4.738;2023-05-01T12:31:34;18.00;98.90
54516;DHT22;40422;45.892;4.738;2023-05-01T12:34:03;18.00;99.10
54516;DHT22;40422;45.892;4.738;2023-05-01T12:36:32;17.90;99.10
54516;DHT22;40422;45.892;4.738;2023-05-01T12:41:36;17.90;99.40
54516;DHT22;40422;45.892;4.738;2023-05-01T12:46:41;17.70;98.20
54516;DHT22;40422;45.892;4.738;2023-05-01T12:49:07;17.70;98.80
54516;DHT22;40422;45.892;4.738;2023-05-01T12:51:33;17.70;99.90
54516;DHT22;40422;45.892;4.738;2023-05-01T12:53:59;17.90;99.90
54516;DHT22;40422;45.892;4.738;2023-05-01T12:56:25;17.90;99.90
54516;DHT22;40422;45.892;4.738;2023-05-01T12:58:51;17.90;99.90
54516;DHT22;40422;45.892;4.738;2023-05-01T13:01:25;17.50;99.90
54516;DHT22;40422;45.892;4.738;2023-05-01T13:03:52;17.10;99.90
54516;DHT22;40422;45.892;4.738;2023-05-01T13:06:19;16.80;99.90
54516;DHT22;40422;45.892;4.738;2023-05-01T13:08:45;16.70;99.90
54516;DHT22;40422;45.892;4.738;2023-05-01T13:11:16;16.50;99.90
54516;DHT22;40422;45.892;4.738;2023-05-01T13:13:44;16.40;99.90
54516;DHT22;40422;45.892;4.738;2023-05-01T13:16:13;16.20;99.90
54516;DHT22;40422;45.892;4.738;2023-05-01T13:18:47;16.10;99.90
54516;DHT22;40422;45.892;4.738;2023-05-01T13:21:18;16.00;99.90
54516;DHT22;40422;45.892;4.738;2023-05-01T13:23:56;15.80;99.90
54516;DHT22;40422;45.892;4.738;2023-05-01T13:26:32;15.70;99.90
54516;DHT22;40422;45.892;4.738;2023-05-01T13:29:02;15.80;99.90
54516;DHT22;40422;45.892;4.738;2023-05-01T13:31:30;15.80;99.90
54516;DHT22;40422;45.892;4.738;2023-05-01T13:33:59;15.80;99.90
54516;DHT22;40422;45.892;4.738;2023-05-01T13:36:30;15.90;99.90
54516;DHT22;40422;45.892;4.738;2023-05-01T13:38:57;16.00;99.90
54516;DHT22;40422;45.892;4.738;2023-05-01T13:41:25;16.10;99.90
54516;DHT22;40422;45.892;4.738;2023-05-01T13:43:53;16.30;99.90
54516;DHT22;40422;45.892;4.738;2023-05-01T13:46:21;16.40;99.90
54516;DHT22;40422;45.892;4.738;2023-05-01T13:48:48;16.50;99.90
54516;DHT22;40422;45.892;4.738;2023-05-01T13:51:21;16.70;99.90
54516;DHT22;40422;45.892;4.738;2023-05-01T13:53:48;16.90;99.90
54516;DHT22;40422;45.892;4.738;2023-05-01T13:56:13;17.10;99.90
54516;DHT22;40422;45.892;4.738;2023-05-01T13:58:40;17.50;99.90
54516;DHT22;40422;45.892;4.738;2023-05-01T14:01:17;18.20;99.90
54516;DHT22;40422;45.892;4.738;2023-05-01T14:03:45;18.60;99.90
54516;DHT22;40422;45.892;4.738;2023-05-01T14:06:15;18.70;99.90
54516;DHT22;40422;45.892;4.738;2023-05-01T14:08:43;18.50;99.90
54516;DHT22;40422;45.892;4.738;2023-05-01T14:11:10;18.50;99.90
54516;DHT22;40422;45.892;4.738;2023-05-01T14:13:40;18.50;99.90
54516;DHT22;40422;45.892;4.738;2023-05-01T14:16:09;18.50;99.90
54516;DHT22;40422;45.892;4.738;2023-05-01T14:18:43;18.40;99.90
54516;DHT22;40422;45.892;4.738;2023-05-01T14:21:10;18.20;99.90
54516;DHT22;40422;45.892;4.738;2023-05-01T14:23:38;18.20;99.90
54516;DHT22;40422;45.892;4.738;2023-05-01T14:26:04;18.30;99.90
54516;DHT22;40422;45.892;4.738;2023-05-01T14:28:32;18.40;99.90
54516;DHT22;40422;45.892;4.738;2023-05-01T14:30:58;18.70;99.90
54516;DHT22;40422;45.892;4.738;2023-05-01T14:33:25;19.10;99.90
54516;DHT22;40422;45.892;4.738;2023-05-01T14:35:52;19.40;99.90
54516;DHT22;40422;45.892;4.738;2023-05-01T14:38:19;19.50;99.90
54516;DHT22;40422;45.892;4.738;2023-05-01T14:40:46;19.60;99.70
54516;DHT22;40422;45.892;4.738;2023-05-01T14:43:16;19.80;98.80
54516;DHT22;40422;45.892;4.738;2023-05-01T14:45:43;20.20;98.40
54516;DHT22;40422;45.892;4.738;2023-05-01T14:48:23;20.70;97.10
54516;DHT22;40422;45.892;4.738;2023-05-01T14:50:50;21.10;95.90
54516;DHT22;40422;45.892;4.738;2023-05-01T14:53:17;21.10;95.90
54516;DHT22;40422;45.892;4.738;2023-05-01T14:55:43;21.50;95.40
54516;DHT22;40422;45.892;4.738;2023-05-01T14:58:09;21.90;95.10
54516;DHT22;40422;45.892;4.738;2023-05-01T15:00:34;22.30;94.80
54516;DHT22;40422;45.892;4.738;2023-05-01T15:03:01;22.40;93.40
54516;DHT22;40422;45.892;4.738;2023-05-01T15:05:27;22.60;92.80
54516;DHT22;40422;45.892;4.738;2023-05-01T15:07:54;22.70;92.90
54516;DHT22;40422;45.892;4.738;2023-05-01T15:10:28;22.90;92.30
54516;DHT22;40422;45.892;4.738;2023-05-01T15:12:56;23.00;90.00
54516;DHT22;40422;45.892;4.738;2023-05-01T15:15:22;22.70;90.40
54516;DHT22;40422;45.892;4.738;2023-05-01T15:17:47;22.50;90.70
54516;DHT22;40422;45.892;4.738;2023-05-01T15:20:13;22.20;91.50
54516;DHT22;40422;45.892;4.738;2023-05-01T15:22:39;22.00;91.50
54516;DHT22;40422;45.892;4.738;2023-05-01T15:25:07;21.40;91.40
54516;DHT22;40422;45.892;4.738;2023-05-01T15:27:33;21.10;92.40
54516;DHT22;40422;45.892;4.738;2023-05-01T15:29:59;20.90;93.50
54516;DHT22;40422;45.892;4.738;2023-05-01T15:32:25;20.50;93.60
54516;DHT22;40422;45.892;4.738;2023-05-01T15:34:51;20.20;94.60
54516;DHT22;40422;45.892;4.738;2023-05-01T15:37:22;20.30;95.40
54516;DHT22;40422;45.892;4.738;2023-05-01T15:39:50;20.60;96.10
54516;DHT22;40422;45.892;4.738;2023-05-01T15:42:19;20.90;95.40
54516;DHT22;40422;45.892;4.738;2023-05-01T15:44:46;21.30;95.00
54516;DHT22;40422;45.892;4.738;2023-05-01T15:47:12;21.60;93.20
54516;DHT22;40422;45.892;4.738;2023-05-01T15:49:38;22.00;92.70
54516;DHT22;40422;45.892;4.738;2023-05-01T15:52:04;22.20;90.80
54516;DHT22;40422;45.892;4.738;2023-05-01T15:54:30;22.50;91.20
54516;DHT22;40422;45.892;4.738;2023-05-01T15:56:56;22.70;89.60
54516;DHT22;40422;45.892;4.738;2023-05-01T15:59:23;22.70;90.20
54516;DHT22;40422;45.892;4.738;2023-05-01T16:01:52;22.60;90.20
54516;DHT22;40422;45.892;4.738;2023-05-01T16:04:18;22.40;90.70
54516;DHT22;40422;45.892;4.738;2023-05-01T16:06:43;22.00;90.80
54516;DHT22;40422;45.892;4.738;2023-05-01T16:09:09;21.70;91.30
54516;DHT22;40422;45.892;4.738;2023-05-01T16:11:35;21.10;92.70
54516;DHT22;40422;45.892;4.738;2023-05-01T16:14:01;20.50;93.80
54516;DHT22;40422;45.892;4.738;2023-05-01T16:16:27;18.80;98.90
54516;DHT22;40422;45.892;4.738;2023-05-01T16:18:55;17.60;99.90
54516;DHT22;40422;45.892;4.738;2023-05-01T16:21:22;16.90;99.90
54516;DHT22;40422;45.892;4.738;2023-05-01T16:23:49;16.60;99.90
54516;DHT22;40422;45.892;4.738;2023-05-01T16:26:27;16.40;99.90
54516;DHT22;40422;45.892;4.738;2023-05-01T16:29:01;16.20;99.90
54516;DHT22;40422;45.892;4.738;2023-05-01T16:31:37;16.20;99.90
54516;DHT22;40422;45.892;4.738;2023-05-01T16:34:09;16.40;99.90
54516;DHT22;40422;45.892;4.738;2023-05-01T16:36:35;16.40;99.90
54516;DHT22;40422;45.892;4.738;2023-05-01T16:39:08;16.40;99.90
54516;DHT22;40422;45.892;4.738;2023-05-01T16:41:44;16.40;99.90
54516;DHT22;40422;45.892;4.738;2023-05-01T16:44:11;16.30;99.90
54516;DHT22;40422;45.892;4.738;2023-05-01T16:46:40;16.30;99.90
54516;DHT22;40422;45.892;4.738;2023-05-01T16:49:10;16.30;99.90
54516;DHT22;40422;45.892;4.738;2023-05-01T16:51:37;16.20;99.90
54516;DHT22;40422;45.892;4.738;2023-05-01T16:54:03;16.20;99.90
54516;DHT22;40422;45.892;4.738;2023-05-01T16:56:29;16.20;99.90
54516;DHT22;40422;45.892;4.738;2023-05-01T16:58:55;16.10;99.90
54516;DHT22;40422;45.892;4.738;2023-05-01T17:01:20;16.10;99.90
54516;DHT22;40422;45.892;4.738;2023-05-01T17:03:46;16.10;99.90
54516;DHT22;40422;45.892;4.738;2023-05-01T17:06:12;16.10;99.90
54516;DHT22;40422;45.892;4.738;2023-05-01T17:08:38;16.20;99.90
54516;DHT22;40422;45.892;4.738;2023-05-01T17:11:05;16.20;99.90
54516;DHT22;40422;45.892;4.738;2023-05-01T17:13:31;16.20;99.90
54516;DHT22;40422;45.892;4.738;2023-05-01T17:15:57;16.20;99.90
54516;DHT22;40422;45.892;4.738;2023-05-01T17:18:24;16.30;99.90
54516;DHT22;40422;45.892;4.738;2023-05-01T17:20:50;16.40;99.90
54516;DHT22;40422;45.892;4.738;2023-05-01T17:23:16;16.60;99.90
54516;DHT22;40422;45.892;4.738;2023-05-01T17:25:43;16.80;99.90
54516;DHT22;40422;45.892;4.738;2023-05-01T17:28:09;16.90;99.90
54516;DHT22;40422;45.892;4.738;2023-05-01T17:30:35;17.00;99.90
54516;DHT22;40422;45.892;4.738;2023-05-01T17:33:01;17.00;99.90
54516;DHT22;40422;45.892;4.738;2023-05-01T17:35:26;16.90;99.90
54516;DHT22;40422;45.892;4.738;2023-05-01T17:37:52;16.80;99.90
54516;DHT22;40422;45.892;4.738;2023-05-01T17:40:18;16.80;99.90
54516;DHT22;40422;45.892;4.738;2023-05-01T17:42:44;16.90;99.90
54516;DHT22;40422;45.892;4.738;2023-05-01T17:45:10;17.00;99.90
54516;DHT22;40422;45.892;4.738;2023-05-01T17:47:37;17.20;99.90
54516;DHT22;40422;45.892;4.738;2023-05-01T17:50:11;17.40;99.90
54516;DHT22;40422;45.892;4.738;2023-05-01T17:52:40;17.40;99.90
54516;DHT22;40422;45.892;4.738;2023-05-01T17:55:06;17.30;99.90
54516;DHT22;40422;45.892;4.738;2023-05-01T17:57:32;17.20;99.90
54516;DHT22;40422;45.892;4.738;2023-05-01T17:59:58;17.10;99.90
54516;DHT22;40422;45.892;4.738;2023-05-01T18:02:28;17.00;99.90
54516;DHT22;40422;45.892;4.738;2023-05-01T18:04:54;17.00;99.90
54516;DHT22;40422;45.892;4.738;2023-05-01T18:07:20;17.00;99.90
54516;DHT22;40422;45.892;4.738;2023-05-01T18:09:46;17.00;99.90
54516;DHT22;40422;45.892;4.738;2023-05-01T18:12:12;17.00;99.90
54516;DHT22;40422;45.892;4.738;2023-05-01T18:14:38;16.90;99.90
54516;DHT22;40422;45.892;4.738;2023-05-01T18:17:04;16.90;99.90
54516;DHT22;40422;45.892;4.738;2023-05-01T18:19:29;16.80;99.90
54516;DHT22;40422;45.892;4.738;2023-05-01T18:21:55;16.60;99.90
54516;DHT22;40422;45.892;4.738;2023-05-01T18:24:21;16.50;99.90
54516;DHT22;40422;45.892;4.738;2023-05-01T18:26:47;16.30;99.90
54516;DHT22;40422;45.892;4.738;2023-05-01T18:29:13;16.20;99.90
54516;DHT22;40422;45.892;4.738;2023-05-01T18:31:39;16.00;99.90
54516;DHT22;40422;45.892;4.738;2023-05-01T18:34:05;15.90;99.90
54516;DHT22;40422;45.892;4.738;2023-05-01T18:36:32;15.80;99.90
54516;DHT22;40422;45.892;4.738;2023-05-01T18:38:57;15.70;99.90
54516;DHT22;40422;45.892;4.738;2023-05-01T18:41:25;15.50;99.90
54516;DHT22;40422;45.892;4.738;2023-05-01T18:43:51;15.40;99.90
54516;DHT22;40422;45.892;4.738;2023-05-01T18:46:17;15.30;99.90
54516;DHT22;40422;45.892;4.738;2023-05-01T18:48:42;15.20;99.90
54516;DHT22;40422;45.892;4.738;2023-05-01T18:51:08;15.10;99.90
54516;DHT22;40422;45.892;4.738;2023-05-01T18:53:34;15.00;99.90
54516;DHT22;40422;45.892;4.738;2023-05-01T18:56:00;14.90;99.90